createdAt,value
2024-04-13T00:01:13.989Z,11.60
2024-04-13T00:03:42.789Z,11.60
2024-04-13T00:06:13.312Z,11.60
2024-04-13T00:08:41.630Z,11.60
2024-04-13T00:11:11.762Z,11.50
2024-04-13T00:13:39.023Z,11.50
2024-04-13T00:16:09.059Z,11.60
2024-04-13T00:18:38.872Z,11.40
2024-04-13T00:21:08.734Z,11.50
2024-04-13T00:23:35.900Z,11.40
2024-04-13T00:26:06.066Z,11.40
2024-04-13T00:28:34.848Z,11.40
2024-04-13T00:31:09.567Z,11.40
2024-04-13T00:33:41.277Z,11.30
2024-04-13T00:36:11.286Z,11.20
2024-04-13T00:38:38.459Z,11.20
2024-04-13T00:41:09.030Z,11.20
2024-04-13T00:43:36.544Z,11.10
2024-04-13T00:46:09.488Z,11.00
2024-04-13T00:48:38.387Z,11.10
2024-04-13T00:51:13.782Z,11.20
2024-04-13T00:53:41.862Z,11.10
2024-04-13T00:56:11.644Z,11.00
2024-04-13T00:58:39.507Z,10.90
2024-04-13T01:01:12.377Z,11.00
2024-04-13T01:03:40.312Z,10.90
2024-04-13T01:06:12.746Z,10.90
2024-04-13T01:08:39.865Z,10.90
2024-04-13T01:11:09.649Z,10.90
2024-04-13T01:13:39.302Z,10.80
2024-04-13T01:16:09.456Z,10.80
2024-04-13T01:18:36.706Z,10.80
2024-04-13T01:21:06.845Z,10.80
2024-04-13T01:23:36.928Z,10.80
2024-04-13T01:26:09.276Z,10.70
2024-04-13T01:28:38.190Z,10.80
2024-04-13T01:31:07.890Z,10.80
2024-04-13T01:33:35.045Z,10.70
2024-04-13T01:36:04.922Z,10.70
2024-04-13T01:38:32.055Z,10.70
2024-04-13T01:41:01.754Z,10.80
2024-04-13T01:43:31.476Z,10.80
2024-04-13T01:46:01.729Z,10.90
2024-04-13T01:48:28.891Z,10.90
2024-04-13T01:50:58.653Z,10.90
2024-04-13T01:53:25.924Z,10.90
2024-04-13T01:55:55.729Z,10.90
2024-04-13T01:58:22.835Z,10.90
2024-04-13T02:00:55.252Z,10.90
2024-04-13T02:03:23.251Z,10.80
2024-04-13T02:05:53.252Z,10.80
2024-04-13T02:08:20.508Z,10.80
2024-04-13T02:10:50.284Z,10.70
2024-04-13T02:13:17.548Z,10.70
2024-04-13T02:15:51.243Z,10.70
2024-04-13T02:18:21.133Z,10.70
2024-04-13T02:20:50.895Z,10.70
2024-04-13T02:23:18.016Z,10.80
2024-04-13T02:25:49.199Z,10.80
2024-04-13T02:28:16.295Z,10.80
2024-04-13T02:30:46.042Z,10.90
2024-04-13T02:33:13.345Z,10.90
2024-04-13T02:35:45.735Z,11.00
2024-04-13T02:38:12.891Z,11.00
2024-04-13T02:40:42.584Z,11.10
2024-04-13T02:43:09.704Z,11.10
2024-04-13T02:45:39.525Z,11.10
2024-04-13T02:48:08.000Z,11.10
2024-04-13T02:50:37.784Z,11.10
2024-04-13T02:53:07.688Z,11.10
2024-04-13T02:55:37.534Z,11.10
2024-04-13T02:58:04.937Z,11.10
2024-04-13T03:00:34.667Z,11.10
2024-04-13T03:03:02.400Z,11.00
2024-04-13T03:05:32.688Z,11.00
2024-04-13T03:08:00.318Z,11.10
2024-04-13T03:10:32.657Z,11.10
2024-04-13T03:12:59.856Z,11.10
2024-04-13T03:15:29.553Z,11.00
2024-04-13T03:17:56.695Z,11.00
2024-04-13T03:20:27.145Z,11.00
2024-04-13T03:22:55.188Z,11.00
2024-04-13T03:25:24.921Z,11.00
2024-04-13T03:27:54.635Z,10.90
2024-04-13T03:30:24.399Z,10.90
2024-04-13T03:32:51.511Z,10.90
2024-04-13T03:35:21.210Z,11.00
2024-04-13T03:37:48.299Z,11.00
2024-04-13T03:40:18.499Z,10.90
2024-04-13T03:42:49.083Z,10.90
2024-04-13T03:45:18.956Z,10.90
2024-04-13T03:47:48.753Z,10.90
2024-04-13T03:50:17.282Z,10.90
2024-04-13T03:52:47.004Z,10.90
2024-04-13T03:55:14.191Z,10.90
2024-04-13T03:57:43.938Z,11.00
2024-04-13T04:00:12.136Z,11.00
2024-04-13T04:02:44.465Z,11.00
2024-04-13T04:05:11.584Z,11.10
2024-04-13T04:07:41.305Z,11.10
2024-04-13T04:10:08.474Z,11.10
2024-04-13T04:12:38.292Z,11.10
2024-04-13T04:15:06.197Z,11.10
2024-04-13T04:17:36.119Z,11.10
2024-04-13T04:20:07.113Z,11.10
2024-04-13T04:22:36.871Z,11.10
2024-04-13T04:25:07.649Z,11.20
2024-04-13T04:27:37.508Z,11.20
2024-04-13T04:30:05.500Z,11.20
2024-04-13T04:32:35.287Z,11.20
2024-04-13T04:35:02.456Z,11.20
2024-04-13T04:37:34.811Z,11.20
2024-04-13T04:40:01.965Z,11.30
2024-04-13T04:42:32.555Z,11.30
2024-04-13T04:44:59.682Z,11.30
2024-04-13T04:47:29.406Z,11.30
2024-04-13T04:49:56.558Z,11.30
2024-04-13T04:52:26.295Z,11.40
2024-04-13T04:55:00.626Z,11.40
2024-04-13T04:57:30.778Z,11.50
2024-04-13T04:59:58.077Z,11.50
2024-04-13T05:02:28.339Z,11.60
2024-04-13T05:04:56.192Z,11.60
2024-04-13T05:07:25.941Z,11.70
2024-04-13T05:09:55.612Z,11.70
2024-04-13T05:12:25.605Z,11.80
2024-04-13T05:14:52.730Z,11.90
2024-04-13T05:17:22.438Z,12.00
2024-04-13T05:19:49.660Z,12.10
2024-04-13T05:22:19.374Z,12.10
2024-04-13T05:24:46.507Z,12.20
2024-04-13T05:27:20.295Z,12.20
2024-04-13T05:29:53.720Z,12.30
2024-04-13T05:32:23.608Z,12.40
2024-04-13T05:34:50.741Z,12.40
2024-04-13T05:37:20.447Z,12.40
2024-04-13T05:39:47.855Z,12.40
2024-04-13T05:42:20.280Z,12.40
2024-04-13T05:44:47.421Z,12.40
2024-04-13T05:47:17.133Z,12.40
2024-04-13T05:49:44.735Z,12.40
2024-04-13T05:52:15.219Z,12.50
2024-04-13T05:54:42.651Z,12.50
2024-04-13T05:57:12.975Z,12.60
2024-04-13T05:59:42.870Z,12.60
2024-04-13T06:02:12.875Z,12.70
2024-04-13T06:04:40.228Z,12.70
2024-04-13T06:07:09.982Z,12.70
2024-04-13T06:09:37.331Z,12.70
2024-04-13T06:12:07.694Z,12.80
2024-04-13T06:14:34.975Z,12.90
2024-04-13T06:17:07.780Z,13.00
2024-04-13T06:19:35.055Z,13.10
2024-04-13T06:22:04.815Z,13.20
2024-04-13T06:24:32.054Z,13.30
2024-04-13T06:27:01.868Z,13.40
2024-04-13T06:29:28.961Z,13.50
2024-04-13T06:32:00.669Z,13.50
2024-04-13T06:34:30.536Z,13.50
2024-04-13T06:37:00.294Z,13.60
2024-04-13T06:39:27.423Z,13.60
2024-04-13T06:41:57.395Z,13.60
2024-04-13T06:44:24.571Z,13.70
2024-04-13T06:46:54.518Z,13.80
2024-04-13T06:49:21.912Z,13.80
2024-04-13T06:51:54.574Z,13.80
2024-04-13T06:54:21.680Z,13.90
2024-04-13T06:56:51.863Z,14.00
2024-04-13T06:59:19.168Z,14.10
2024-04-13T07:01:48.974Z,14.20
2024-04-13T07:04:16.191Z,14.30
2024-04-13T07:06:46.038Z,14.40
2024-04-13T07:09:16.096Z,14.50
2024-04-13T07:11:45.867Z,14.60
2024-04-13T07:14:13.059Z,14.80
2024-04-13T07:16:42.789Z,14.90
2024-04-13T07:19:09.908Z,15.00
2024-04-13T07:21:39.740Z,15.10
2024-04-13T07:24:07.169Z,15.20
2024-04-13T07:26:39.535Z,15.30
2024-04-13T07:29:06.690Z,15.50
2024-04-13T07:31:36.535Z,15.60
2024-04-13T07:34:04.488Z,15.60
2024-04-13T07:36:34.266Z,15.70
2024-04-13T07:39:01.522Z,15.80
2024-04-13T07:41:31.260Z,15.80
2024-04-13T07:44:00.977Z,15.90
2024-04-13T07:46:30.732Z,15.90
2024-04-13T07:48:57.914Z,16.00
2024-04-13T07:51:27.643Z,16.20
2024-04-13T07:53:54.794Z,16.20
2024-04-13T07:56:24.522Z,16.30
2024-04-13T07:58:52.013Z,16.30
2024-04-13T08:01:24.469Z,16.50
2024-04-13T08:03:51.746Z,16.60
2024-04-13T08:06:22.007Z,16.60
2024-04-13T08:08:49.177Z,16.60
2024-04-13T08:11:18.947Z,16.70
2024-04-13T08:13:48.922Z,16.90
2024-04-13T08:16:16.143Z,17.00
2024-04-13T08:18:48.601Z,17.20
2024-04-13T08:21:15.771Z,17.30
2024-04-13T08:23:45.552Z,17.40
2024-04-13T08:26:12.861Z,17.40
2024-04-13T08:28:42.599Z,17.60
2024-04-13T08:31:09.779Z,17.70
2024-04-13T08:33:39.565Z,17.70
2024-04-13T08:36:09.664Z,17.70
2024-04-13T08:38:39.544Z,17.80
2024-04-13T08:41:11.637Z,17.90
2024-04-13T08:43:41.447Z,17.90
2024-04-13T08:46:09.395Z,17.80
2024-04-13T08:48:39.963Z,17.80
2024-04-13T08:51:10.703Z,17.70
2024-04-13T08:53:40.431Z,17.70
2024-04-13T08:56:11.799Z,17.70
2024-04-13T08:58:42.664Z,17.60
2024-04-13T09:01:12.146Z,17.50
2024-04-13T09:03:42.622Z,17.50
2024-04-13T09:06:13.843Z,17.60
2024-04-13T09:08:44.102Z,17.80
2024-04-13T09:11:11.261Z,17.80
2024-04-13T09:13:42.767Z,17.90
2024-04-13T09:16:10.279Z,18.00
2024-04-13T09:18:40.489Z,18.20
2024-04-13T09:21:08.763Z,18.40
2024-04-13T09:23:41.074Z,18.50
2024-04-13T09:26:08.557Z,18.70
2024-04-13T09:28:42.362Z,18.80
2024-04-13T09:31:10.317Z,18.80
2024-04-13T09:33:41.664Z,18.90
2024-04-13T09:36:10.259Z,19.00
2024-04-13T09:38:42.718Z,19.20
2024-04-13T09:41:09.794Z,19.40
2024-04-13T09:43:39.871Z,19.50
2024-04-13T09:46:07.004Z,19.60
2024-04-13T09:48:36.956Z,19.60
2024-04-13T09:51:04.671Z,19.50
2024-04-13T09:53:34.545Z,19.50
2024-04-13T09:56:04.586Z,19.10
2024-04-13T09:58:34.429Z,19.10
2024-04-13T10:01:04.218Z,19.00
2024-04-13T10:03:34.207Z,19.10
2024-04-13T10:06:01.920Z,19.00
2024-04-13T10:08:33.282Z,19.20
2024-04-13T10:11:01.377Z,19.20
2024-04-13T10:13:39.597Z,19.30
2024-04-13T10:16:07.106Z,19.20
2024-04-13T10:18:37.038Z,19.40
2024-04-13T10:21:04.521Z,19.60
2024-04-13T10:23:42.196Z,19.70
2024-04-13T10:26:09.440Z,19.60
2024-04-13T10:28:42.348Z,19.60
2024-04-13T10:31:18.503Z,19.80
2024-04-13T10:33:56.397Z,20.00
2024-04-13T10:36:27.969Z,20.10
2024-04-13T10:38:58.648Z,20.00
2024-04-13T10:41:32.707Z,19.90
2024-04-13T10:44:06.415Z,19.90
2024-04-13T10:46:34.298Z,19.90
2024-04-13T10:49:04.396Z,19.80
2024-04-13T10:51:31.972Z,19.90
2024-04-13T10:54:02.828Z,19.70
2024-04-13T10:56:30.049Z,19.90
2024-04-13T10:58:59.932Z,19.90
2024-04-13T11:01:29.803Z,20.00
2024-04-13T11:04:08.696Z,20.20
2024-04-13T11:06:36.041Z,20.30
2024-04-13T11:09:06.218Z,20.40
2024-04-13T11:11:33.550Z,20.40
2024-04-13T11:14:00.696Z,20.50
2024-04-13T11:16:33.097Z,20.60
2024-04-13T11:19:00.297Z,20.60
2024-04-13T11:21:30.256Z,20.80
2024-04-13T11:23:57.420Z,21.00
2024-04-13T11:26:27.125Z,21.20
2024-04-13T11:28:54.258Z,20.90
2024-04-13T11:31:23.983Z,20.90
2024-04-13T11:33:53.762Z,20.90
2024-04-13T11:36:23.502Z,20.80
2024-04-13T11:38:50.723Z,20.50
2024-04-13T11:41:21.755Z,20.40
2024-04-13T11:43:54.364Z,20.50
2024-04-13T11:46:24.460Z,20.50
2024-04-13T11:48:54.333Z,20.70
2024-04-13T11:51:24.132Z,21.10
2024-04-13T11:53:54.209Z,21.30
2024-04-13T11:56:24.277Z,21.50
2024-04-13T11:58:53.048Z,21.50
2024-04-13T12:01:22.833Z,21.70
2024-04-13T12:03:50.046Z,21.80
2024-04-13T12:06:22.520Z,22.00
2024-04-13T12:08:49.624Z,22.20
2024-04-13T12:11:19.458Z,22.30
2024-04-13T12:13:46.856Z,22.40
2024-04-13T12:16:16.609Z,22.50
2024-04-13T12:18:43.834Z,22.80
2024-04-13T12:21:13.745Z,22.60
2024-04-13T12:23:43.566Z,22.70
2024-04-13T12:26:13.412Z,22.70
2024-04-13T12:28:40.596Z,22.90
2024-04-13T12:31:10.350Z,22.90
2024-04-13T12:33:37.564Z,22.80
2024-04-13T12:36:08.147Z,22.90
2024-04-13T12:38:35.980Z,22.80
2024-04-13T12:41:08.354Z,22.60
2024-04-13T12:43:35.456Z,22.70
2024-04-13T12:46:05.175Z,22.70
2024-04-13T12:48:32.466Z,22.60
2024-04-13T12:51:02.211Z,22.60
2024-04-13T12:53:29.371Z,22.80
2024-04-13T12:55:59.085Z,22.90
2024-04-13T12:58:28.781Z,22.90
2024-04-13T13:00:58.560Z,22.90
2024-04-13T13:03:25.810Z,22.90
2024-04-13T13:05:55.562Z,22.80
2024-04-13T13:08:22.795Z,22.80
2024-04-13T13:10:52.872Z,22.80
2024-04-13T13:13:20.022Z,22.90
2024-04-13T13:15:54.189Z,22.90
2024-04-13T13:18:21.394Z,23.00
2024-04-13T13:20:51.114Z,23.00
2024-04-13T13:23:18.919Z,22.90
2024-04-13T13:25:48.615Z,23.00
2024-04-13T13:28:16.187Z,23.00
2024-04-13T13:30:45.954Z,22.90
2024-04-13T13:33:15.759Z,22.90
2024-04-13T13:35:45.534Z,22.90
2024-04-13T13:38:12.670Z,22.80
2024-04-13T13:40:42.356Z,22.80
2024-04-13T13:43:09.654Z,22.60
2024-04-13T13:45:41.646Z,22.50
2024-04-13T13:48:09.061Z,22.50
2024-04-13T13:50:41.550Z,22.60
2024-04-13T13:53:08.730Z,22.40
2024-04-13T13:55:38.436Z,22.50
2024-04-13T13:58:05.931Z,22.50
2024-04-13T14:00:35.782Z,22.30
2024-04-13T14:03:02.956Z,22.30
2024-04-13T14:05:32.674Z,22.40
2024-04-13T14:08:05.040Z,22.30
2024-04-13T14:10:32.219Z,22.20
2024-04-13T14:13:01.960Z,22.00
2024-04-13T14:15:32.298Z,22.10
2024-04-13T14:18:03.812Z,22.10
2024-04-13T14:20:30.980Z,22.00
2024-04-13T14:23:00.703Z,22.10
2024-04-13T14:25:30.440Z,22.10
2024-04-13T14:28:01.275Z,22.00
2024-04-13T14:30:28.466Z,22.10
2024-04-13T14:32:58.398Z,22.00
2024-04-13T14:35:25.660Z,22.00
2024-04-13T14:37:56.520Z,21.90
2024-04-13T14:40:23.654Z,21.90
2024-04-13T14:42:57.447Z,21.80
2024-04-13T14:45:24.840Z,21.80
2024-04-13T14:47:54.651Z,21.80
2024-04-13T14:50:21.861Z,21.70
2024-04-13T14:52:51.615Z,21.70
2024-04-13T14:55:18.815Z,21.70
2024-04-13T14:57:50.982Z,21.70
2024-04-13T15:00:21.482Z,21.70
2024-04-13T15:02:51.237Z,21.70
2024-04-13T15:05:18.614Z,21.50
2024-04-13T15:07:48.374Z,21.60
2024-04-13T15:10:15.607Z,21.50
2024-04-13T15:12:45.413Z,21.50
2024-04-13T15:15:13.335Z,21.50
2024-04-13T15:17:45.888Z,21.50
2024-04-13T15:20:13.097Z,21.50
2024-04-13T15:22:42.845Z,21.40
2024-04-13T15:25:10.021Z,21.30
2024-04-13T15:27:39.826Z,21.30
2024-04-13T15:30:08.016Z,21.30
2024-04-13T15:32:37.927Z,21.20
2024-04-13T15:35:08.033Z,21.20
2024-04-13T15:37:38.071Z,21.10
2024-04-13T15:40:06.305Z,21.10
2024-04-13T15:42:36.069Z,21.00
2024-04-13T15:45:03.314Z,21.00
2024-04-13T15:47:33.191Z,21.00
2024-04-13T15:50:00.452Z,20.90
2024-04-13T15:52:33.103Z,20.90
2024-04-13T15:55:00.254Z,20.90
2024-04-13T15:57:30.051Z,20.90
2024-04-13T16:00:00.628Z,20.90
2024-04-13T16:02:30.662Z,20.90
2024-04-13T16:04:57.807Z,20.90
2024-04-13T16:07:29.648Z,20.90
2024-04-13T16:09:59.599Z,20.80
2024-04-13T16:12:29.482Z,20.80
2024-04-13T16:14:56.652Z,20.70
2024-04-13T16:17:26.396Z,20.70
2024-04-13T16:19:53.616Z,20.70
2024-04-13T16:22:24.447Z,20.60
2024-04-13T16:24:51.804Z,20.60
2024-04-13T16:27:24.214Z,20.60
2024-04-13T16:29:51.351Z,20.50
2024-04-13T16:32:21.151Z,20.40
2024-04-13T16:34:48.288Z,20.40
2024-04-13T16:37:18.038Z,20.40
2024-04-13T16:39:45.236Z,20.30
2024-04-13T16:42:15.030Z,20.20
2024-04-13T16:44:44.842Z,20.20
2024-04-13T16:47:14.570Z,20.10
2024-04-13T16:49:41.752Z,20.10
2024-04-13T16:52:11.559Z,20.10
2024-04-13T16:54:38.738Z,20.00
2024-04-13T16:57:08.619Z,19.90
2024-04-13T16:59:35.789Z,19.80
2024-04-13T17:02:08.146Z,19.80
2024-04-13T17:04:35.571Z,19.70
2024-04-13T17:07:05.268Z,19.70
2024-04-13T17:09:33.479Z,19.70
2024-04-13T17:12:03.283Z,19.60
2024-04-13T17:14:30.381Z,19.50
2024-04-13T17:17:00.087Z,19.50
2024-04-13T17:19:29.816Z,19.50
2024-04-13T17:21:59.584Z,19.40
2024-04-13T17:24:26.825Z,19.40
2024-04-13T17:26:56.639Z,19.40
2024-04-13T17:29:23.808Z,19.30
2024-04-13T17:31:53.577Z,19.10
2024-04-13T17:34:21.300Z,18.90
2024-04-13T17:36:53.753Z,18.80
2024-04-13T17:39:21.001Z,18.70
2024-04-13T17:41:50.964Z,18.70
2024-04-13T17:44:18.127Z,18.50
2024-04-13T17:46:47.901Z,18.50
2024-04-13T17:49:15.810Z,18.40
2024-04-13T17:51:47.273Z,18.20
2024-04-13T17:54:17.259Z,18.10
2024-04-13T17:56:47.082Z,18.10
2024-04-13T17:59:14.244Z,18.10
2024-04-13T18:01:44.038Z,18.00
2024-04-13T18:04:11.525Z,17.80
2024-04-13T18:06:41.464Z,17.80
2024-04-13T18:09:08.673Z,17.80
2024-04-13T18:11:41.699Z,17.60
2024-04-13T18:14:09.765Z,17.50
2024-04-13T18:16:39.546Z,17.50
2024-04-13T18:19:08.281Z,17.40
2024-04-13T18:21:38.138Z,17.30
2024-04-13T18:24:06.801Z,17.20
2024-04-13T18:26:36.633Z,17.20
2024-04-13T18:29:06.476Z,17.10
2024-04-13T18:31:38.188Z,17.00
2024-04-13T18:34:06.554Z,16.90
2024-04-13T18:36:36.629Z,16.90
2024-04-13T18:39:03.928Z,16.80
2024-04-13T18:41:35.661Z,16.80
2024-04-13T18:44:07.662Z,16.70
2024-04-13T18:46:39.032Z,16.60
2024-04-13T18:49:06.288Z,16.50
2024-04-13T18:51:36.282Z,16.40
2024-04-13T18:54:03.521Z,16.40
2024-04-13T18:56:33.968Z,16.30
2024-04-13T18:59:01.163Z,16.30
2024-04-13T19:01:33.752Z,16.20
2024-04-13T19:04:01.004Z,16.20
2024-04-13T19:06:30.851Z,16.10
2024-04-13T19:08:58.030Z,16.10
2024-04-13T19:11:27.921Z,16.10
2024-04-13T19:13:57.810Z,16.00
2024-04-13T19:16:25.331Z,15.90
2024-04-13T19:18:57.854Z,15.80
2024-04-13T19:21:25.341Z,15.80
2024-04-13T19:23:55.247Z,15.80
2024-04-13T19:26:22.463Z,15.70
2024-04-13T19:28:52.204Z,15.70
2024-04-13T19:31:19.419Z,15.70
2024-04-13T19:33:49.202Z,15.70
2024-04-13T19:36:19.668Z,15.60
2024-04-13T19:38:49.574Z,15.60
2024-04-13T19:41:18.511Z,15.60
2024-04-13T19:43:48.309Z,15.50
2024-04-13T19:46:15.519Z,15.40
2024-04-13T19:48:45.870Z,15.40
2024-04-13T19:51:13.403Z,15.40
2024-04-13T19:53:50.000Z,15.40
2024-04-13T19:56:17.309Z,15.40
2024-04-13T19:58:47.035Z,15.30
2024-04-13T20:01:14.505Z,15.20
2024-04-13T20:03:44.666Z,15.20
2024-04-13T20:06:12.830Z,15.20
2024-04-13T20:08:45.942Z,15.20
2024-04-13T20:11:13.086Z,15.10
2024-04-13T20:13:43.622Z,15.00
2024-04-13T20:16:29.384Z,15.00
2024-04-13T20:18:59.172Z,15.00
2024-04-13T20:21:27.076Z,15.00
2024-04-13T20:23:59.492Z,15.00
2024-04-13T20:26:29.185Z,15.00
2024-04-13T20:28:58.923Z,15.00
2024-04-13T20:31:28.691Z,15.00
2024-04-13T20:33:55.961Z,14.90
2024-04-13T20:36:25.812Z,14.90
2024-04-13T20:38:52.960Z,14.80
2024-04-13T20:41:25.276Z,14.70
2024-04-13T20:43:54.005Z,14.70
2024-04-13T20:46:23.682Z,14.70
2024-04-13T20:48:52.124Z,14.70
2024-04-13T20:51:21.912Z,14.70
2024-04-13T20:53:49.064Z,14.70
2024-04-13T20:56:18.746Z,14.60
2024-04-13T20:58:48.486Z,14.60
2024-04-13T21:01:19.381Z,14.60
2024-04-13T21:03:46.674Z,14.60
2024-04-13T21:06:16.816Z,14.60
2024-04-13T21:08:44.092Z,14.60
2024-04-13T21:11:14.828Z,14.60
2024-04-13T21:13:43.085Z,14.50
2024-04-13T21:16:15.473Z,14.50
2024-04-13T21:18:42.733Z,14.50
2024-04-13T21:21:12.506Z,14.40
2024-04-13T21:23:39.699Z,14.30
2024-04-13T21:26:09.428Z,14.30
2024-04-13T21:28:36.566Z,14.30
2024-04-13T21:31:06.698Z,14.40
2024-04-13T21:33:36.683Z,14.40
2024-04-13T21:36:06.797Z,14.40
2024-04-13T21:38:34.798Z,14.40
2024-04-13T21:41:04.818Z,14.30
2024-04-13T21:43:33.285Z,14.30
2024-04-13T21:46:03.441Z,14.20
2024-04-13T21:48:30.854Z,14.20
2024-04-13T21:51:03.249Z,14.20
2024-04-13T21:53:30.412Z,14.20
2024-04-13T21:56:00.139Z,14.10
2024-04-13T21:58:27.230Z,14.10
2024-04-13T22:00:57.130Z,14.10
2024-04-13T22:03:24.420Z,14.00
2024-04-13T22:05:54.179Z,14.00
2024-04-13T22:08:25.371Z,14.00
2024-04-13T22:10:56.338Z,14.00
2024-04-13T22:13:23.500Z,13.90
2024-04-13T22:15:53.174Z,13.90
2024-04-13T22:18:22.741Z,13.80
2024-04-13T22:20:54.486Z,13.80
2024-04-13T22:23:24.258Z,13.80
2024-04-13T22:25:53.960Z,13.80
2024-04-13T22:28:21.182Z,13.70
2024-04-13T22:30:50.932Z,13.60
2024-04-13T22:33:18.102Z,13.60
2024-04-13T22:35:48.665Z,13.60
2024-04-13T22:38:15.907Z,13.60
2024-04-13T22:40:48.201Z,13.50
2024-04-13T22:43:15.330Z,13.50
2024-04-13T22:45:45.642Z,13.50
2024-04-13T22:48:12.975Z,13.60
2024-04-13T22:50:42.836Z,13.50
2024-04-13T22:53:09.947Z,13.50
2024-04-13T22:55:39.654Z,13.50
2024-04-13T22:58:09.365Z,13.50
2024-04-13T23:00:41.558Z,13.40
2024-04-13T23:03:08.736Z,13.50
2024-04-13T23:05:38.404Z,13.40
2024-04-13T23:08:06.408Z,13.40
2024-04-13T23:10:36.165Z,13.30
2024-04-13T23:13:03.334Z,13.40
2024-04-13T23:15:35.758Z,13.40
2024-04-13T23:18:03.181Z,13.30
2024-04-13T23:20:32.955Z,13.30
2024-04-13T23:23:00.108Z,13.40
2024-04-13T23:25:29.834Z,13.40
2024-04-13T23:27:57.003Z,13.30
2024-04-13T23:30:26.801Z,13.30
2024-04-13T23:32:56.545Z,13.30
2024-04-13T23:35:26.516Z,13.20
2024-04-13T23:37:56.442Z,13.30
2024-04-13T23:40:26.683Z,13.20
2024-04-13T23:42:53.902Z,13.30
2024-04-13T23:45:23.706Z,13.20
2024-04-13T23:47:50.879Z,13.20
2024-04-13T23:50:23.393Z,13.20
2024-04-13T23:52:50.665Z,13.10
2024-04-13T23:55:21.032Z,13.20
2024-04-13T23:57:48.556Z,13.20
